AirNav   Everest Fuels
 
 1372 users online  

83IA Keokuk County Health Center Heliport
Sigourney, Iowa, USA

GOING TO SIGOURNEY?


FAA INFORMATION EFFECTIVE 30 JANUARY 2020

Location

FAA Identifier: 83IA
Lat/Long: 41-19-20.7600N 092-12-24.2500W
41-19.346000N 092-12.404167W
41.3224333,-92.2067361
(estimated)
Elevation: 753 ft. / 230 m (estimated)
Time zone: UTC -6 (UTC -5 during Daylight Saving Time)
Zip code: 52591

Heliport Operations

Heliport use: Private use, MEDICAL USE.
Activation date: 07/2004
Control tower: no
ARTCC: CHICAGO CENTER
FSS: FORT DODGE FLIGHT SERVICE STATION
Attendance: UNATNDD
Segmented circle: no
Lights: FOR PERIMETER LGTS CALL 641-622-2720.

Heliport Communications

WX AWOS-3 at OOA (14 nm SW): 118.625 (641-933-4312)
WX ASOS at OTM (17 nm SW): 124.175 (641-684-9164)
WX AWOS-3 at FFL (19 nm SE): 132.025 (641-472-4548)

Nearby radio navigation aids

VOR radial/distance  VOR name  Freq  Var
OTMr011/18.4OTTUMWA VOR/DME111.6006E
IOWr241/29.2IOWA CITY VOR/DME116.2005E
CIDr204/38.8CEDAR RAPIDS VOR/DME114.1005E

 
NDB name  Hdg/Dist  Freq  Var  ID
PELLA096/33.625702EPEA .--. . .-
BLOOMFIELD014/36.126902EBEX -... . -..-

Heliport Services

Runway Information

Helipad H1

Dimensions: 40 x 40 ft. / 12 x 12 m
Surface: concrete
Runway edge lights: PERI
Latitude: 41-19.346000N
Longitude: 092-12.404167W
Elevation: 753.0 ft.
Traffic pattern: leftleft

Heliport Ownership and Management from official FAA records

Ownership: Privately-owned
Owner: KEOKUK COUNTY HEALTH CENTER
23019 HWY 149
SIGOURNEY, IA 52591
Phone 641-622-2720
Manager: CASEY THOMPSON
23019 HIGHWAY 149
SIGOURNEY, IA 52591
Phone 641-660-0709
DIRECTOR OF FACILITY SERVICES.

Additional Remarks

OWNER DESIRES HELIPORT NOT BE CHARTED.
FOR CD CTC CHICAGO ARTCC AT 630-906-8921.

Instrument Procedures

There are no published instrument procedures at 83IA.

Some nearby airports with instrument procedures:

KOOA - Oskaloosa Municipal Airport (14 nm SW)
KOTM - Ottumwa Regional Airport (17 nm SW)
KFFL - Fairfield Municipal Airport (19 nm SE)
KAWG - Washington Municipal Airport (24 nm E)
4C8 - Albia Municipal Airport (32 nm SW)
 
Loc | Ops | Rwys | IFR | FBO | Links
Com | Nav | Svcs | Stats | Notes
Area around 83IA (Keokuk County Health Center Heliport)
 
Road maps at: MapQuest Bing Google
 
Aerial photo
No photo
 
Sectional chart

 
Airport distance calculator
Flying to Keokuk County Health Center Heliport? Find the distance to fly.

From to 83IA

Sunrise and sunset
Times for 17-Feb-2020
 Local
(UTC-6)
 Zulu
(UTC)
Morning civil twilight06:3412:34
Sunrise07:0213:02
Sunset17:4423:44
Evening civil twilight18:1200:12

Current date and time
Zulu (UTC)  17-Feb-2020 16:41:42
Local (UTC-6)  17-Feb-2020 10:41:42
 
METAR
KOOA 
14nm SW 
171615Z AUTO 11007KT 2 1/2SM BR BKN085 OVC100 03/03 A2987 RMK AO2 T00300025
KOTM 
17nm SW 
171606Z AUTO 12011KT 5SM BR FEW005 BKN090 OVC110 02/01 A2986 RMK AO2 T00220011
KFFL 
20nm SE 
171615Z AUTO 13010KT 4SM BR FEW005 02/02 A2988 RMK A01
KAWG 
25nm E 
171615Z AUTO 10011KT 3SM BR CLR 02/02 A2989 RMK AO2
TAF
KOTM 
17nm SW 
171139Z 1712/1812 10005KT 6SM -RA BR OVC045 FM171700 17006KT P6SM VCSH OVC015 FM172100 23005KT P6SM VCSH BKN008 FM180300 31015G23KT P6SM BKN010
NOTAMs
Click for the latest NOTAMs
NOTAMs are issued by the DoD/FAA and will open in a separate window not controlled by AirNav.

 

 
 

Would you like to see your business listed on this page?

 If your business provides an interesting product or service to pilots, flight crews, aircraft, or users of the Keokuk County Health Center Heliport, you should consider listing it here.  To start the listing process, click on the button below
 
Add a business
 

Other Pages about Keokuk County Health Center Heliport

Update a link
 
Copyright © AirNav, LLC. All rights reserved. Privacy Policy  Contact